createdAt,value
2019-05-25T00:00:49.973Z,79.94
2019-05-25T00:01:49.942Z,79.41
2019-05-25T00:02:49.940Z,79.12
2019-05-25T00:03:49.932Z,77.69
2019-05-25T00:04:49.937Z,77.11
2019-05-25T00:05:49.879Z,77.25
2019-05-25T00:06:49.843Z,76.48
2019-05-25T00:07:49.824Z,76.39
2019-05-25T00:08:49.809Z,75.52
2019-05-25T00:09:49.804Z,75.71
2019-05-25T00:10:49.777Z,75.14
2019-05-25T00:11:49.743Z,75.14
2019-05-25T00:12:49.705Z,74.61
2019-05-25T00:13:49.708Z,74.41
2019-05-25T00:14:49.698Z,74.90
2019-05-25T00:15:49.697Z,74.99
2019-05-25T00:16:49.631Z,75.81
2019-05-25T00:17:49.606Z,75.91
2019-05-25T00:18:49.566Z,76.20
2019-05-25T00:19:49.584Z,76.77
2019-05-25T00:20:49.575Z,77.82
2019-05-25T00:21:49.529Z,77.92
2019-05-25T00:22:49.497Z,78.16
2019-05-25T00:23:49.475Z,78.83
2019-05-25T00:24:49.465Z,78.83
2019-05-25T00:25:49.433Z,79.22
2019-05-25T00:26:49.414Z,79.31
2019-05-25T00:27:49.417Z,79.08
2019-05-25T00:28:49.455Z,80.32
2019-05-25T00:29:49.358Z,80.80
2019-05-25T00:30:49.388Z,81.47
2019-05-25T00:31:49.306Z,80.61
2019-05-25T00:32:49.347Z,81.18
2019-05-25T00:33:49.267Z,81.85
2019-05-25T00:34:49.259Z,82.32
2019-05-25T00:35:49.221Z,82.67
2019-05-25T00:36:49.199Z,82.95
2019-05-25T00:37:49.202Z,83.05
2019-05-25T00:38:49.156Z,83.05
2019-05-25T00:39:49.132Z,83.05
2019-05-25T00:40:57.771Z,83.34
2019-05-25T00:42:42.019Z,82.76
2019-05-25T00:43:41.971Z,82.86
2019-05-25T00:45:35.089Z,82.95
2019-05-25T00:46:34.848Z,82.76
2019-05-25T00:48:27.724Z,81.90
2019-05-25T00:49:27.704Z,81.43
2019-05-25T00:51:20.630Z,80.70
2019-05-25T00:52:20.561Z,80.22
2019-05-25T00:54:27.168Z,79.27
2019-05-25T00:55:13.425Z,79.27
2019-05-25T00:57:23.454Z,79.56
2019-05-25T00:58:23.459Z,79.17
2019-05-25T01:00:26.289Z,78.60
2019-05-25T01:01:26.203Z,78.79
2019-05-25T01:02:26.183Z,78.79
2019-05-25T01:03:26.189Z,78.89
2019-05-25T01:04:26.160Z,78.89
2019-05-25T01:05:26.156Z,79.17
2019-05-25T01:06:26.111Z,78.99
2019-05-25T01:07:26.094Z,78.51
2019-05-25T01:08:26.072Z,78.70
2019-05-25T01:09:26.069Z,79.17
2019-05-25T01:10:26.022Z,78.03
2019-05-25T01:11:25.989Z,78.70
2019-05-25T01:12:26.021Z,78.03
2019-05-25T01:13:25.950Z,78.03
2019-05-25T01:14:25.950Z,77.50
2019-05-25T01:15:25.982Z,78.07
2019-05-25T01:16:25.914Z,77.17
2019-05-25T01:17:25.864Z,77.55
2019-05-25T01:18:25.888Z,77.59
2019-05-25T01:19:25.837Z,76.92
2019-05-25T01:20:25.818Z,77.11
2019-05-25T01:21:25.806Z,76.16
2019-05-25T01:22:25.767Z,76.64
2019-05-25T01:23:25.826Z,76.54
2019-05-25T01:24:25.737Z,76.45
2019-05-25T01:25:25.735Z,77.11
2019-05-25T01:26:25.680Z,78.26
2019-05-25T01:27:25.649Z,78.64
2019-05-25T01:28:25.632Z,80.22
2019-05-25T01:29:25.606Z,80.57
2019-05-25T01:30:25.604Z,82.09
2019-05-25T01:31:25.572Z,83.05
2019-05-25T01:32:25.542Z,83.43
2019-05-25T01:33:25.530Z,84.34
2019-05-25T01:34:25.543Z,84.63
2019-05-25T01:35:25.490Z,84.82
2019-05-25T01:36:25.468Z,85.58
2019-05-25T01:37:25.482Z,85.93
2019-05-25T01:38:25.425Z,86.02
2019-05-25T01:39:25.397Z,86.30
2019-05-25T01:40:25.384Z,86.11
2019-05-25T01:41:25.392Z,86.49
2019-05-25T01:42:25.375Z,86.59
2019-05-25T01:43:25.360Z,86.40
2019-05-25T01:44:25.318Z,85.58
2019-05-25T01:45:25.285Z,85.73
2019-05-25T01:46:25.266Z,85.93
2019-05-25T01:47:25.208Z,85.83
2019-05-25T01:48:25.206Z,85.64
2019-05-25T01:49:25.171Z,85.73
2019-05-25T01:50:25.262Z,85.77
2019-05-25T01:51:25.116Z,85.21
2019-05-25T01:52:25.146Z,85.39
2019-05-25T01:53:25.080Z,84.53
2019-05-25T01:54:25.057Z,84.53
2019-05-25T01:55:25.059Z,84.06
2019-05-25T01:56:25.019Z,83.77
2019-05-25T01:57:24.983Z,83.24
2019-05-25T01:58:24.965Z,82.19
2019-05-25T01:59:24.970Z,82.19
2019-05-25T02:00:24.924Z,81.90
2019-05-25T02:01:24.905Z,81.71
2019-05-25T02:02:24.896Z,81.52
2019-05-25T02:03:24.852Z,81.33
2019-05-25T02:04:24.859Z,80.66
2019-05-25T02:05:24.813Z,80.61
2019-05-25T02:06:24.793Z,80.51
2019-05-25T02:07:24.773Z,80.41
2019-05-25T02:08:24.751Z,80.04
2019-05-25T02:09:24.735Z,79.56
2019-05-25T02:10:24.813Z,79.27
2019-05-25T02:11:24.704Z,79.36
2019-05-25T02:12:24.735Z,79.36
2019-05-25T02:13:24.718Z,79.36
2019-05-25T02:14:24.677Z,79.08
2019-05-25T02:15:24.613Z,79.36
2019-05-25T02:16:24.602Z,79.08
2019-05-25T02:17:24.570Z,79.36
2019-05-25T02:18:24.574Z,79.56
2019-05-25T02:19:24.531Z,79.08
2019-05-25T02:20:24.509Z,79.27
2019-05-25T02:21:24.486Z,79.36
2019-05-25T02:22:24.445Z,78.99
2019-05-25T02:23:24.441Z,79.17
2019-05-25T02:24:24.486Z,79.31
2019-05-25T02:25:24.375Z,78.55
2019-05-25T02:26:24.371Z,79.02
2019-05-25T02:27:24.345Z,78.93
2019-05-25T02:28:24.315Z,78.55
2019-05-25T02:29:24.293Z,78.74
2019-05-25T02:30:24.300Z,78.74
2019-05-25T02:31:24.272Z,79.08
2019-05-25T02:32:24.241Z,78.99
2019-05-25T02:33:24.249Z,79.56
2019-05-25T02:34:24.190Z,79.17
2019-05-25T02:35:24.203Z,79.08
2019-05-25T02:36:24.153Z,79.75
2019-05-25T02:37:24.122Z,79.56
2019-05-25T02:38:24.110Z,80.41
2019-05-25T02:39:24.118Z,80.70
2019-05-25T02:40:24.054Z,80.32
2019-05-25T02:41:24.060Z,80.95
2019-05-25T02:42:24.011Z,81.24
2019-05-25T02:43:23.988Z,81.43
2019-05-25T02:44:23.975Z,80.85
2019-05-25T02:45:23.951Z,80.76
2019-05-25T02:46:23.952Z,80.66
2019-05-25T02:47:23.933Z,81.04
2019-05-25T02:48:23.909Z,81.52
2019-05-25T02:49:23.893Z,81.33
2019-05-25T02:50:23.842Z,81.14
2019-05-25T02:51:23.817Z,81.52
2019-05-25T02:52:23.791Z,80.95
2019-05-25T02:53:23.779Z,81.62
2019-05-25T02:54:23.763Z,81.62
2019-05-25T02:55:33.853Z,82.29
2019-05-25T02:56:23.723Z,83.05
2019-05-25T02:57:23.704Z,82.86
2019-05-25T02:58:23.668Z,82.76
2019-05-25T02:59:23.670Z,83.20
2019-05-25T03:00:23.648Z,83.39
2019-05-25T03:01:23.612Z,83.87
2019-05-25T03:02:23.600Z,84.34
2019-05-25T03:03:23.581Z,84.25
2019-05-25T03:04:23.536Z,84.34
2019-05-25T03:05:23.531Z,83.67
2019-05-25T03:06:23.514Z,83.87
2019-05-25T03:07:23.540Z,83.29
2019-05-25T03:08:23.531Z,84.06
2019-05-25T03:09:23.442Z,84.53
2019-05-25T03:10:23.399Z,85.58
2019-05-25T03:11:31.065Z,85.58
2019-05-25T03:13:17.787Z,85.77
2019-05-25T03:14:17.735Z,86.16
2019-05-25T03:16:10.620Z,86.73
2019-05-25T03:17:10.565Z,86.25
2019-05-25T03:19:03.464Z,86.92
2019-05-25T03:20:03.436Z,86.73
2019-05-25T03:22:10.130Z,86.63
2019-05-25T03:23:09.538Z,87.02
2019-05-25T03:25:03.904Z,86.92
2019-05-25T03:26:03.879Z,87.02
2019-05-25T03:27:56.762Z,87.11
2019-05-25T03:28:56.713Z,86.92
2019-05-25T03:31:03.138Z,86.73
2019-05-25T03:32:03.057Z,87.11
2019-05-25T03:33:59.939Z,86.54
2019-05-25T03:34:59.915Z,86.63
2019-05-25T03:36:53.479Z,86.63
2019-05-25T03:37:52.784Z,86.54
2019-05-25T03:39:58.693Z,86.44
2019-05-25T03:40:58.679Z,86.35
2019-05-25T03:41:58.649Z,86.16
2019-05-25T03:42:58.607Z,86.25
2019-05-25T03:43:58.586Z,86.44
2019-05-25T03:44:58.566Z,86.25
2019-05-25T03:45:58.546Z,86.01
2019-05-25T03:46:58.565Z,86.10
2019-05-25T03:47:58.554Z,85.82
2019-05-25T03:48:58.492Z,86.30
2019-05-25T03:49:58.468Z,86.39
2019-05-25T03:50:58.477Z,86.58
2019-05-25T03:51:58.440Z,86.30
2019-05-25T03:52:58.394Z,87.25
2019-05-25T03:53:58.400Z,86.96
2019-05-25T03:54:58.380Z,86.20
2019-05-25T03:56:05.701Z,86.58
2019-05-25T03:56:58.318Z,86.58
2019-05-25T03:57:58.315Z,86.39
2019-05-25T03:58:58.296Z,85.82
2019-05-25T03:59:58.245Z,86.49
2019-05-25T04:00:58.237Z,86.68
2019-05-25T04:01:58.235Z,86.72
2019-05-25T04:02:58.251Z,86.53
2019-05-25T04:03:58.171Z,86.43
2019-05-25T04:04:58.134Z,86.05
2019-05-25T04:05:58.119Z,86.43
2019-05-25T04:07:06.758Z,85.96
2019-05-25T04:08:51.011Z,84.95
2019-05-25T04:09:50.959Z,85.24
2019-05-25T04:11:43.877Z,85.05
2019-05-25T04:12:43.822Z,84.56
2019-05-25T04:13:43.827Z,83.42
2019-05-25T04:14:43.782Z,82.75
2019-05-25T04:15:43.764Z,84.19
2019-05-25T04:16:43.740Z,84.19
2019-05-25T04:17:43.721Z,83.23
2019-05-25T04:18:43.700Z,83.42
2019-05-25T04:19:43.687Z,82.89
2019-05-25T04:20:43.672Z,83.46
2019-05-25T04:21:43.640Z,82.98
2019-05-25T04:22:43.619Z,83.75
2019-05-25T04:23:43.601Z,83.17
2019-05-25T04:24:43.577Z,83.37
2019-05-25T04:25:43.562Z,83.17
2019-05-25T04:26:43.536Z,83.17
2019-05-25T04:27:43.537Z,83.75
2019-05-25T04:28:43.498Z,84.09
2019-05-25T04:29:43.478Z,84.85
2019-05-25T04:30:43.475Z,85.05
2019-05-25T04:31:43.431Z,85.42
2019-05-25T04:32:43.416Z,85.24
2019-05-25T04:33:43.397Z,85.62
2019-05-25T04:34:43.378Z,85.33
2019-05-25T04:35:43.356Z,84.85
2019-05-25T04:36:43.335Z,84.56
2019-05-25T04:37:43.375Z,84.95
2019-05-25T04:38:43.333Z,85.24
2019-05-25T04:39:43.273Z,85.94
2019-05-25T04:40:43.254Z,86.14
2019-05-25T04:41:43.229Z,84.95
2019-05-25T04:42:43.214Z,84.70
2019-05-25T04:43:43.194Z,84.70
2019-05-25T04:44:43.168Z,84.61
2019-05-25T04:45:50.345Z,84.52
2019-05-25T04:47:36.494Z,84.99
2019-05-25T04:48:36.213Z,85.28
2019-05-25T04:50:32.138Z,84.70
2019-05-25T04:51:32.100Z,84.89
2019-05-25T04:53:26.608Z,84.80
2019-05-25T04:54:26.546Z,85.09
2019-05-25T04:55:26.532Z,85.09
2019-05-25T04:56:39.095Z,84.61
2019-05-25T04:57:26.513Z,84.61
2019-05-25T04:58:26.463Z,84.36
2019-05-25T04:59:26.471Z,84.46
2019-05-25T05:00:26.450Z,84.84
2019-05-25T05:01:26.467Z,83.79
2019-05-25T05:02:26.412Z,84.94
2019-05-25T05:03:26.364Z,84.84
2019-05-25T05:04:26.354Z,84.84
2019-05-25T05:05:26.328Z,84.36
2019-05-25T05:06:26.313Z,84.27
2019-05-25T05:07:26.375Z,81.97
2019-05-25T05:08:26.282Z,80.92
2019-05-25T05:09:26.264Z,79.58
2019-05-25T05:10:26.231Z,78.95
2019-05-25T05:11:26.219Z,78.95
2019-05-25T05:12:26.204Z,79.05
2019-05-25T05:13:26.176Z,78.95
2019-05-25T05:14:26.062Z,78.57
2019-05-25T05:15:26.148Z,78.66
2019-05-25T05:16:26.125Z,78.38
2019-05-25T05:17:26.116Z,78.19
2019-05-25T05:18:26.073Z,78.76
2019-05-25T05:19:26.058Z,78.95
2019-05-25T05:20:26.105Z,78.66
2019-05-25T05:21:26.020Z,78.38
2019-05-25T05:22:26.019Z,78.66
2019-05-25T05:23:26.018Z,78.19
2019-05-25T05:24:25.995Z,78.86
2019-05-25T05:25:25.963Z,79.33
2019-05-25T05:26:25.953Z,80.29
2019-05-25T05:27:25.910Z,80.10
2019-05-25T05:28:25.914Z,80.29
2019-05-25T05:29:25.819Z,79.37
2019-05-25T05:30:25.874Z,78.51
2019-05-25T05:31:25.862Z,78.42
2019-05-25T05:32:27.877Z,77.26
2019-05-25T05:33:25.833Z,76.69
2019-05-25T05:34:25.784Z,76.31
2019-05-25T05:35:25.746Z,74.62
2019-05-25T05:36:25.745Z,73.86
2019-05-25T05:37:25.785Z,72.64
2019-05-25T05:38:25.707Z,73.22
2019-05-25T05:39:25.683Z,72.68
2019-05-25T05:40:25.661Z,71.63
2019-05-25T05:41:25.543Z,72.55
2019-05-25T05:42:25.646Z,72.78
2019-05-25T05:43:25.607Z,73.13
2019-05-25T05:44:25.629Z,72.74
2019-05-25T05:45:25.567Z,72.49
2019-05-25T05:46:25.579Z,70.64
2019-05-25T05:47:25.565Z,70.25
2019-05-25T05:48:25.515Z,71.05
2019-05-25T05:49:25.487Z,71.25
2019-05-25T05:50:25.489Z,71.44
2019-05-25T05:51:27.239Z,71.76
2019-05-25T05:52:25.451Z,70.32
2019-05-25T05:53:25.420Z,69.93
2019-05-25T05:54:25.413Z,70.86
2019-05-25T05:55:25.433Z,72.39
2019-05-25T05:56:25.390Z,73.65
2019-05-25T05:57:25.367Z,74.66
2019-05-25T05:58:25.352Z,75.14
2019-05-25T05:59:25.325Z,75.33
2019-05-25T06:00:25.328Z,76.48
2019-05-25T06:01:25.295Z,76.86
2019-05-25T06:02:25.289Z,76.39
2019-05-25T06:03:25.263Z,76.29
2019-05-25T06:04:25.266Z,77.34
2019-05-25T06:05:25.246Z,77.50
2019-05-25T06:06:25.203Z,77.34
2019-05-25T06:07:27.370Z,76.39
2019-05-25T06:08:25.183Z,75.43
2019-05-25T06:09:25.141Z,74.95
2019-05-25T06:10:25.125Z,74.27
2019-05-25T06:11:25.162Z,74.31
2019-05-25T06:12:25.173Z,74.41
2019-05-25T06:13:25.071Z,73.49
2019-05-25T06:14:25.091Z,73.33
2019-05-25T06:15:25.089Z,72.66
2019-05-25T06:16:25.033Z,71.19
2019-05-25T06:17:25.018Z,69.95
2019-05-25T06:18:25.010Z,68.48
2019-05-25T06:19:24.994Z,67.51
2019-05-25T06:20:24.989Z,66.68
2019-05-25T06:21:24.959Z,65.94
2019-05-25T06:22:24.924Z,64.02
2019-05-25T06:23:24.917Z,62.70
2019-05-25T06:24:24.808Z,61.58
2019-05-25T06:25:24.899Z,61.87
2019-05-25T06:26:24.896Z,61.29
2019-05-25T06:27:27.734Z,60.80
2019-05-25T06:28:24.893Z,62.25
2019-05-25T06:29:24.836Z,62.83
2019-05-25T06:30:24.840Z,63.15
2019-05-25T06:31:24.820Z,62.63
2019-05-25T06:32:24.820Z,62.22
2019-05-25T06:33:24.797Z,64.69
2019-05-25T06:34:24.830Z,65.37
2019-05-25T06:35:24.745Z,64.05
2019-05-25T06:36:24.750Z,63.47
2019-05-25T06:37:24.741Z,61.77
2019-05-25T06:38:24.731Z,62.54
2019-05-25T06:39:24.700Z,63.12
2019-05-25T06:40:24.703Z,63.02
2019-05-25T06:41:24.680Z,61.19
2019-05-25T06:42:24.669Z,61.03
2019-05-25T06:43:33.217Z,59.42
2019-05-25T06:45:17.511Z,59.25
2019-05-25T06:46:17.451Z,58.19
2019-05-25T06:48:11.080Z,58.55
2019-05-25T06:49:10.341Z,58.62
2019-05-25T06:51:03.282Z,59.61
2019-05-25T06:52:03.247Z,59.23
2019-05-25T06:53:56.374Z,60.13
2019-05-25T06:54:56.141Z,60.42
2019-05-25T06:56:50.070Z,62.45
2019-05-25T06:57:50.041Z,63.51
2019-05-25T06:59:42.984Z,64.76
2019-05-25T07:00:42.959Z,64.28
2019-05-25T07:02:35.868Z,61.52
2019-05-25T07:03:35.824Z,59.78
2019-05-25T07:05:29.749Z,58.56
2019-05-25T07:06:29.730Z,57.69
2019-05-25T07:08:22.662Z,58.22
2019-05-25T07:09:22.622Z,58.57
2019-05-25T07:11:15.621Z,60.46
2019-05-25T07:12:15.589Z,61.65
2019-05-25T07:14:10.133Z,60.49
2019-05-25T07:15:10.097Z,58.75
2019-05-25T07:17:03.489Z,58.30
2019-05-25T07:18:03.457Z,57.65
2019-05-25T07:19:57.883Z,54.33
2019-05-25T07:20:57.844Z,54.33
2019-05-25T07:22:51.433Z,52.17
2019-05-25T07:23:50.742Z,51.97
2019-05-25T07:25:44.666Z,51.20
2019-05-25T07:26:44.665Z,50.01
2019-05-25T07:28:37.813Z,52.14
2019-05-25T07:29:37.545Z,50.52
2019-05-25T07:31:30.432Z,51.70
2019-05-25T07:32:30.423Z,52.40
2019-05-25T07:34:23.359Z,52.19
2019-05-25T07:35:23.327Z,49.90
2019-05-25T07:37:16.234Z,49.07
2019-05-25T07:38:16.217Z,51.13
2019-05-25T07:40:09.192Z,48.57
2019-05-25T07:41:09.096Z,47.91
2019-05-25T07:43:03.001Z,46.89
2019-05-25T07:44:02.448Z,45.42
2019-05-25T07:45:02.446Z,45.28
2019-05-25T07:46:02.433Z,46.80
2019-05-25T07:47:02.422Z,47.24
2019-05-25T07:48:02.410Z,48.49
2019-05-25T07:49:02.416Z,49.07
2019-05-25T07:50:02.393Z,48.69
2019-05-25T07:51:02.398Z,48.79
2019-05-25T07:52:02.923Z,49.24
2019-05-25T07:53:02.361Z,48.39
2019-05-25T07:54:02.355Z,46.77
2019-05-25T07:55:02.335Z,45.92
2019-05-25T07:56:02.333Z,44.59
2019-05-25T07:57:02.324Z,43.43
2019-05-25T07:58:15.859Z,44.18
2019-05-25T07:59:02.320Z,42.80
2019-05-25T08:00:02.289Z,44.02
2019-05-25T08:01:02.279Z,45.25
2019-05-25T08:02:02.270Z,46.44
2019-05-25T08:03:02.261Z,45.31
2019-05-25T08:04:02.253Z,47.22
2019-05-25T08:05:02.244Z,48.16
2019-05-25T08:06:02.232Z,48.52
2019-05-25T08:07:02.249Z,48.33
2019-05-25T08:08:03.216Z,46.81
2019-05-25T08:09:02.201Z,47.22
2019-05-25T08:10:02.191Z,48.69
2019-05-25T08:11:02.175Z,46.85
2019-05-25T08:12:02.167Z,46.56
2019-05-25T08:13:02.161Z,47.26
2019-05-25T08:14:02.152Z,44.84
2019-05-25T08:15:02.164Z,45.35
2019-05-25T08:16:02.121Z,43.88
2019-05-25T08:17:02.112Z,43.98
2019-05-25T08:18:02.118Z,46.80
2019-05-25T08:19:02.114Z,44.21
2019-05-25T08:20:02.085Z,43.17
2019-05-25T08:21:02.072Z,42.57
2019-05-25T08:22:02.064Z,43.05
2019-05-25T08:23:02.057Z,42.25
2019-05-25T08:24:02.039Z,43.61
2019-05-25T08:25:02.033Z,43.95
2019-05-25T08:26:02.024Z,45.00
2019-05-25T08:27:02.025Z,46.68
2019-05-25T08:28:02.005Z,45.81
2019-05-25T08:29:01.998Z,46.20
2019-05-25T08:30:02.016Z,45.25
2019-05-25T08:31:01.995Z,44.98
2019-05-25T08:32:01.958Z,45.49
2019-05-25T08:33:01.960Z,43.77
2019-05-25T08:34:01.944Z,43.87
2019-05-25T08:35:01.939Z,44.47
2019-05-25T08:36:01.935Z,43.06
2019-05-25T08:37:01.916Z,42.50
2019-05-25T08:38:01.905Z,41.82
2019-05-25T08:39:01.898Z,40.69
2019-05-25T08:40:01.905Z,42.27
2019-05-25T08:41:01.882Z,40.75
2019-05-25T08:42:01.865Z,38.52
2019-05-25T08:43:01.856Z,39.12
2019-05-25T08:44:04.417Z,37.95
2019-05-25T08:45:01.845Z,36.49
2019-05-25T08:46:01.834Z,37.99
2019-05-25T08:47:01.832Z,39.86
2019-05-25T08:48:01.821Z,42.36
2019-05-25T08:49:01.812Z,44.45
2019-05-25T08:50:01.818Z,45.93
2019-05-25T08:51:01.796Z,47.91
2019-05-25T08:52:04.167Z,48.95
2019-05-25T08:53:01.785Z,50.09
2019-05-25T08:54:01.776Z,51.05
2019-05-25T08:55:01.835Z,52.01
2019-05-25T08:56:01.758Z,51.89
2019-05-25T08:57:01.804Z,51.92
2019-05-25T08:58:01.743Z,51.65
2019-05-25T08:59:01.729Z,51.27
2019-05-25T09:00:01.716Z,51.85
2019-05-25T09:01:01.715Z,51.85
2019-05-25T09:02:01.705Z,52.23
2019-05-25T09:03:01.692Z,51.56
2019-05-25T09:04:01.683Z,51.75
2019-05-25T09:05:01.676Z,51.37
2019-05-25T09:06:01.664Z,52.45
2019-05-25T09:07:01.659Z,51.27
2019-05-25T09:08:01.644Z,51.63
2019-05-25T09:09:01.633Z,52.21
2019-05-25T09:10:01.626Z,51.70
2019-05-25T09:11:01.614Z,52.73
2019-05-25T09:12:02.436Z,55.60
2019-05-25T09:13:01.597Z,55.41
2019-05-25T09:14:01.583Z,55.02
2019-05-25T09:15:01.573Z,55.41
2019-05-25T09:16:01.559Z,55.22
2019-05-25T09:17:01.557Z,57.24
2019-05-25T09:18:01.535Z,56.18
2019-05-25T09:19:01.531Z,56.27
2019-05-25T09:20:01.536Z,57.24
2019-05-25T09:21:01.505Z,57.34
2019-05-25T09:22:03.580Z,56.95
2019-05-25T09:23:01.499Z,58.11
2019-05-25T09:24:01.471Z,56.76
2019-05-25T09:25:01.461Z,56.98
2019-05-25T09:26:01.446Z,56.37
2019-05-25T09:27:01.435Z,56.69
2019-05-25T09:28:01.425Z,56.33
2019-05-25T09:29:04.577Z,56.43
2019-05-25T09:30:01.405Z,56.43
2019-05-25T09:31:01.394Z,56.04
2019-05-25T09:32:01.381Z,55.18
2019-05-25T09:33:01.414Z,54.60
2019-05-25T09:34:01.364Z,55.36
2019-05-25T09:35:01.347Z,55.24
2019-05-25T09:36:01.335Z,56.30
2019-05-25T09:37:01.319Z,56.69
2019-05-25T09:38:01.313Z,57.17
2019-05-25T09:39:01.299Z,56.52
2019-05-25T09:40:01.289Z,55.27
2019-05-25T09:41:01.276Z,54.53
2019-05-25T09:42:01.270Z,53.95
2019-05-25T09:43:01.252Z,53.78
2019-05-25T09:44:01.241Z,54.39
2019-05-25T09:45:01.235Z,53.69
2019-05-25T09:46:03.265Z,53.03
2019-05-25T09:47:01.211Z,52.91
2019-05-25T09:48:01.199Z,52.55
2019-05-25T09:49:01.188Z,52.29
2019-05-25T09:50:01.178Z,53.06
2019-05-25T09:51:01.214Z,52.00
2019-05-25T09:52:01.153Z,51.93
2019-05-25T09:53:01.149Z,52.58
2019-05-25T09:54:01.133Z,51.54
2019-05-25T09:55:01.123Z,51.93
2019-05-25T09:56:01.124Z,51.44
2019-05-25T09:57:01.131Z,51.97
2019-05-25T09:58:01.089Z,53.39
2019-05-25T09:59:01.084Z,53.17
2019-05-25T10:00:01.073Z,55.36
2019-05-25T10:01:01.062Z,55.46
2019-05-25T10:02:01.049Z,55.54
2019-05-25T10:03:01.050Z,55.18
2019-05-25T10:04:09.234Z,54.43
2019-05-25T10:06:10.984Z,53.75
2019-05-25T10:07:02.119Z,54.17
2019-05-25T10:08:55.030Z,54.11
2019-05-25T10:09:55.007Z,55.82
2019-05-25T10:11:49.551Z,56.66
2019-05-25T10:12:40.757Z,57.92
2019-05-25T10:14:35.172Z,58.08
2019-05-25T10:15:34.107Z,59.97
2019-05-25T10:17:27.037Z,59.78
2019-05-25T10:18:27.003Z,58.88
2019-05-25T10:20:19.931Z,55.85
2019-05-25T10:21:19.897Z,53.78
2019-05-25T10:23:12.785Z,49.55
2019-05-25T10:24:12.773Z,48.32
2019-05-25T10:25:12.881Z,47.65
2019-05-25T10:26:12.751Z,46.68
2019-05-25T10:27:12.759Z,46.75
2019-05-25T10:28:12.781Z,46.61
2019-05-25T10:29:12.716Z,45.30
2019-05-25T10:30:12.705Z,44.96
2019-05-25T10:31:12.702Z,43.04
2019-05-25T10:32:12.695Z,42.29
2019-05-25T10:33:12.682Z,42.48
2019-05-25T10:34:12.699Z,42.02
2019-05-25T10:35:12.658Z,40.46
2019-05-25T10:36:12.678Z,42.13
2019-05-25T10:37:12.633Z,40.41
2019-05-25T10:38:12.628Z,39.34
2019-05-25T10:39:12.622Z,38.83
2019-05-25T10:40:12.617Z,39.01
2019-05-25T10:41:12.604Z,40.41
2019-05-25T10:42:12.590Z,40.60
2019-05-25T10:43:12.588Z,39.75
2019-05-25T10:44:12.578Z,38.79
2019-05-25T10:45:12.577Z,37.95
2019-05-25T10:46:12.572Z,38.26
2019-05-25T10:47:12.563Z,36.80
2019-05-25T10:48:12.541Z,38.56
2019-05-25T10:49:12.544Z,37.19
2019-05-25T10:50:12.535Z,38.85
2019-05-25T10:51:12.526Z,35.63
2019-05-25T10:52:12.524Z,34.90
2019-05-25T10:53:12.508Z,38.04
2019-05-25T10:54:12.507Z,36.93
2019-05-25T10:55:12.518Z,35.96
2019-05-25T10:56:12.495Z,36.93
2019-05-25T10:57:13.389Z,37.67
2019-05-25T10:58:12.476Z,38.64
2019-05-25T10:59:12.473Z,37.77
2019-05-25T11:00:12.467Z,37.90
2019-05-25T11:01:12.464Z,45.16
2019-05-25T11:02:12.453Z,49.17
2019-05-25T11:03:12.451Z,49.19
2019-05-25T11:04:12.437Z,49.41
2019-05-25T11:05:12.454Z,48.64
2019-05-25T11:06:12.433Z,49.53
2019-05-25T11:07:12.424Z,52.21
2019-05-25T11:08:12.416Z,52.67
2019-05-25T11:09:12.421Z,53.37
2019-05-25T11:10:12.402Z,52.33
2019-05-25T11:11:12.406Z,51.87
2019-05-25T11:12:12.385Z,51.01
2019-05-25T11:13:12.380Z,50.31
2019-05-25T11:14:12.376Z,50.13
2019-05-25T11:15:12.363Z,49.97
2019-05-25T11:16:12.358Z,47.96
2019-05-25T11:17:12.360Z,48.25
2019-05-25T11:18:12.347Z,48.74
2019-05-25T11:19:12.334Z,48.79
2019-05-25T11:20:12.330Z,49.27
2019-05-25T11:21:12.329Z,49.24
2019-05-25T11:22:12.315Z,50.96
2019-05-25T11:23:12.305Z,51.29
2019-05-25T11:24:12.297Z,52.57
2019-05-25T11:25:12.293Z,53.97
2019-05-25T11:26:12.282Z,53.16
2019-05-25T11:27:12.281Z,51.73
2019-05-25T11:28:12.263Z,48.01
2019-05-25T11:29:12.261Z,45.66
2019-05-25T11:30:12.252Z,43.59
2019-05-25T11:31:12.247Z,42.37
2019-05-25T11:32:12.236Z,41.45
2019-05-25T11:33:12.225Z,40.71
2019-05-25T11:34:12.219Z,37.51
2019-05-25T11:35:12.253Z,38.95
2019-05-25T11:36:12.226Z,39.12
2019-05-25T11:37:15.425Z,38.64
2019-05-25T11:38:12.189Z,37.96
2019-05-25T11:39:12.181Z,37.49
2019-05-25T11:40:12.172Z,36.82
2019-05-25T11:41:12.164Z,37.61
2019-05-25T11:42:12.150Z,36.91
2019-05-25T11:43:12.145Z,36.91
2019-05-25T11:44:12.136Z,36.74
2019-05-25T11:45:12.123Z,36.76
2019-05-25T11:46:12.122Z,35.57
2019-05-25T11:47:12.114Z,36.68
2019-05-25T11:48:12.104Z,36.22
2019-05-25T11:49:22.240Z,35.47
2019-05-25T11:50:12.088Z,34.27
2019-05-25T11:51:12.079Z,34.61
2019-05-25T11:52:12.075Z,34.77
2019-05-25T11:53:12.067Z,36.18
2019-05-25T11:54:12.056Z,37.90
2019-05-25T11:55:12.045Z,38.46
2019-05-25T11:56:12.038Z,39.92
2019-05-25T11:57:12.032Z,39.14
2019-05-25T11:58:12.028Z,39.51
2019-05-25T11:59:12.015Z,39.43
2019-05-25T12:00:24.508Z,40.15
2019-05-25T12:01:11.990Z,38.85
2019-05-25T12:02:11.990Z,37.05
2019-05-25T12:03:11.977Z,36.61
2019-05-25T12:04:11.966Z,34.28
2019-05-25T12:05:11.968Z,33.06
2019-05-25T12:06:11.950Z,31.90
2019-05-25T12:07:11.936Z,31.34
2019-05-25T12:08:11.932Z,29.86
2019-05-25T12:09:11.926Z,31.18
2019-05-25T12:10:12.058Z,32.54
2019-05-25T12:11:11.903Z,31.16
2019-05-25T12:12:11.897Z,31.55
2019-05-25T12:13:11.890Z,31.23
2019-05-25T12:14:11.895Z,31.23
2019-05-25T12:15:11.880Z,32.57
2019-05-25T12:16:11.871Z,33.98
2019-05-25T12:17:11.864Z,32.84
2019-05-25T12:18:11.853Z,30.33
2019-05-25T12:19:14.879Z,30.24
2019-05-25T12:20:11.839Z,30.35
2019-05-25T12:21:11.834Z,29.58
2019-05-25T12:22:11.824Z,26.83
2019-05-25T12:23:12.003Z,28.09
2019-05-25T12:24:11.813Z,29.24
2019-05-25T12:25:11.808Z,30.11
2019-05-25T12:26:11.801Z,29.64
2019-05-25T12:27:11.794Z,29.65
2019-05-25T12:28:11.786Z,28.13
2019-05-25T12:29:11.778Z,26.34
2019-05-25T12:30:11.771Z,27.29
2019-05-25T12:31:11.771Z,28.74
2019-05-25T12:32:11.761Z,29.19
2019-05-25T12:33:11.755Z,29.58
2019-05-25T12:34:11.745Z,29.28
2019-05-25T12:35:11.751Z,29.11
2019-05-25T12:36:11.738Z,28.69
2019-05-25T12:37:11.727Z,31.62
2019-05-25T12:38:11.722Z,31.15
2019-05-25T12:39:11.722Z,31.05
2019-05-25T12:40:27.450Z,30.01
2019-05-25T12:42:12.324Z,28.09
2019-05-25T12:43:05.115Z,26.84
2019-05-25T12:44:59.044Z,26.89
2019-05-25T12:45:59.019Z,25.73
2019-05-25T12:46:59.012Z,25.43
2019-05-25T12:47:59.011Z,24.93
2019-05-25T12:48:59.002Z,25.37
2019-05-25T12:49:58.989Z,27.42
2019-05-25T12:50:59.028Z,27.33
2019-05-25T12:51:59.009Z,26.37
2019-05-25T12:52:58.972Z,26.95
2019-05-25T12:53:58.965Z,25.31
2019-05-25T12:54:58.954Z,25.98
2019-05-25T12:55:58.953Z,26.78
2019-05-25T12:57:02.468Z,24.41
2019-05-25T12:57:58.948Z,26.84
2019-05-25T12:58:58.947Z,24.80
2019-05-25T13:00:14.320Z,25.76
2019-05-25T13:00:58.922Z,25.65
2019-05-25T13:01:58.914Z,27.03
2019-05-25T13:02:58.916Z,25.76
2019-05-25T13:03:58.913Z,26.64
2019-05-25T13:04:58.910Z,25.49
2019-05-25T13:05:58.890Z,24.91
2019-05-25T13:06:58.884Z,25.65
2019-05-25T13:07:58.880Z,25.62
2019-05-25T13:08:58.873Z,26.00
2019-05-25T13:09:58.872Z,25.42
2019-05-25T13:10:58.871Z,26.20
2019-05-25T13:11:58.853Z,25.71
2019-05-25T13:13:01.949Z,26.87
2019-05-25T13:14:11.983Z,27.48
2019-05-25T13:14:58.830Z,27.98
2019-05-25T13:15:58.827Z,26.44
2019-05-25T13:16:58.820Z,26.37
2019-05-25T13:17:58.837Z,23.84
2019-05-25T13:18:58.810Z,23.84
2019-05-25T13:19:58.871Z,23.85
2019-05-25T13:20:58.793Z,23.57
2019-05-25T13:21:58.788Z,21.03
2019-05-25T13:22:58.791Z,23.47
2019-05-25T13:23:58.775Z,23.07
2019-05-25T13:24:58.764Z,22.25
2019-05-25T13:25:58.760Z,23.50
2019-05-25T13:26:58.763Z,23.80
2019-05-25T13:27:58.750Z,23.00
2019-05-25T13:28:58.743Z,23.30
2019-05-25T13:30:02.686Z,23.49
2019-05-25T13:31:10.744Z,23.59
2019-05-25T13:31:58.727Z,22.91
2019-05-25T13:32:58.717Z,23.28
2019-05-25T13:33:58.704Z,23.96
2019-05-25T13:34:58.695Z,23.88
2019-05-25T13:35:58.694Z,23.19
2019-05-25T13:37:05.887Z,23.87
2019-05-25T13:38:58.816Z,23.09
2019-05-25T13:39:58.788Z,24.24
2019-05-25T13:42:03.267Z,25.30